Startpagina
METAR-TAF:

METAR-TAF

Vliegvelden :

K13-a, Nederland

Productieplatform

breedte: 53-13-04N, lengte: 3-13-13E, hoogte: 31 m

Actueel weer

Dit bericht is 36 minuten geleden gemaakt, om 10:25 UTC
Wind 14 kt uit het oostzuidoosten met uitschieters tot 14 kt
Temperatuur 13°C
Vochtigheid 94%
Druk 1023 hPa

METAR: EHJR 261025Z AUTO 12014G14KT //// ///////// 13/12 Q1023 W12/H4

Tijdstip: 13:01 (11:01 UTC)


TAF: ontbreekt

Waarnemingen en weersverwachtingen van meer dan 4000 vliegvelden (METAR en TAF).

De beschikbare stations zijn de gele en rode punten op de kaart.

Ga met uw muis naar het station om de naam te zien.

Klik dan om waarnemingen en weersverwachtingen te zien.

kaart wijzigen: klik op de groene knoppen met een zwart kruis om in te zoomen, op de groene knop met een streepje om uit te zoomen of op de groene pijlen voor aangrenzende kaarten.


METAR-TAF: